createdAt,value
2018-10-09T00:00:25.151Z,22.00
2018-10-09T00:02:54.011Z,19.43
2018-10-09T00:05:22.851Z,21.33
2018-10-09T00:07:51.978Z,15.73
2018-10-09T00:10:21.405Z,17.53
2018-10-09T00:12:50.259Z,19.20
2018-10-09T00:15:19.069Z,20.00
2018-10-09T00:17:48.011Z,19.93
2018-10-09T00:20:24.373Z,19.30
2018-10-09T00:22:58.825Z,18.87
2018-10-09T00:28:24.943Z,17.13
2018-10-09T00:30:53.869Z,21.97
2018-10-09T00:33:22.720Z,16.97
2018-10-09T00:35:51.601Z,18.63
2018-10-09T00:38:20.445Z,20.77
2018-10-09T00:40:49.284Z,22.83
2018-10-09T00:43:18.077Z,17.37
2018-10-09T00:45:46.954Z,24.67
2018-10-09T00:48:15.775Z,21.93
2018-10-09T00:50:45.093Z,23.03
2018-10-09T00:53:13.964Z,22.63
2018-10-09T00:55:45.846Z,21.57
2018-10-09T00:58:14.656Z,20.37
2018-10-09T01:00:43.674Z,20.40
2018-10-09T01:03:12.558Z,23.00
2018-10-09T01:05:41.387Z,23.47
2018-10-09T01:08:10.199Z,24.67
2018-10-09T01:10:40.137Z,21.67
2018-10-09T01:13:10.265Z,22.60
2018-10-09T01:15:39.189Z,23.67
2018-10-09T01:18:07.981Z,20.40
2018-10-09T01:20:36.826Z,22.33
2018-10-09T01:23:06.614Z,21.40
2018-10-09T01:25:36.125Z,22.17
2018-10-09T01:28:05.190Z,20.43
2018-10-09T01:30:34.449Z,20.40
2018-10-09T01:33:03.737Z,25.03
2018-10-09T01:35:33.437Z,25.47
2018-10-09T01:38:02.424Z,24.60
2018-10-09T01:40:31.254Z,23.80
2018-10-09T01:43:01.818Z,22.77
2018-10-09T01:45:30.637Z,23.67
2018-10-09T01:47:59.492Z,24.63
2018-10-09T01:50:28.267Z,22.93
2018-10-09T01:52:57.110Z,23.27
2018-10-09T01:55:26.222Z,26.27
2018-10-09T01:57:56.076Z,24.03
2018-10-09T02:00:25.126Z,22.13
2018-10-09T02:02:53.958Z,23.57
2018-10-09T02:05:23.328Z,22.50
2018-10-09T02:07:52.750Z,22.87
2018-10-09T02:10:21.871Z,24.73
2018-10-09T02:12:50.789Z,21.40
2018-10-09T02:15:19.781Z,25.67
2018-10-09T02:17:48.614Z,21.90
2018-10-09T02:20:17.640Z,22.33
2018-10-09T02:22:46.534Z,27.90
2018-10-09T02:25:15.350Z,26.73
2018-10-09T02:27:44.638Z,25.77
2018-10-09T02:30:13.954Z,27.73
2018-10-09T02:32:42.797Z,25.53
2018-10-09T02:35:11.646Z,22.60
2018-10-09T02:37:40.521Z,26.63
2018-10-09T02:40:09.347Z,27.53
2018-10-09T02:42:38.267Z,24.73
2018-10-09T02:45:07.101Z,24.60
2018-10-09T02:47:35.932Z,31.13
2018-10-09T02:50:05.538Z,24.97
2018-10-09T02:52:34.351Z,25.73
2018-10-09T02:55:03.171Z,25.20
2018-10-09T02:57:32.003Z,24.47
2018-10-09T03:00:00.851Z,26.80
2018-10-09T03:02:29.842Z,23.90
2018-10-09T03:04:58.697Z,26.73
2018-10-09T03:07:27.529Z,25.20
2018-10-09T03:09:56.347Z,28.40
2018-10-09T03:12:25.146Z,26.47
2018-10-09T03:14:53.991Z,24.23
2018-10-09T03:17:23.133Z,27.83
2018-10-09T03:19:52.123Z,28.93
2018-10-09T03:22:21.273Z,26.70
2018-10-09T03:24:50.185Z,28.43
2018-10-09T03:27:19.010Z,27.33
2018-10-09T03:29:47.978Z,26.20
2018-10-09T03:32:16.803Z,26.70
2018-10-09T03:34:45.642Z,28.10
2018-10-09T03:37:14.473Z,25.43
2018-10-09T03:39:43.302Z,27.03
2018-10-09T03:42:12.119Z,27.30
2018-10-09T03:44:41.078Z,28.77
2018-10-09T03:47:09.894Z,24.27
2018-10-09T03:49:38.764Z,29.77
2018-10-09T03:52:07.640Z,30.00
2018-10-09T03:54:36.446Z,26.60
2018-10-09T03:57:05.277Z,30.37
2018-10-09T03:59:34.118Z,30.23
2018-10-09T04:02:02.967Z,30.67
2018-10-09T04:04:32.030Z,33.20
2018-10-09T04:07:01.353Z,26.97
2018-10-09T04:09:30.155Z,29.97
2018-10-09T04:11:58.964Z,29.50
2018-10-09T04:14:27.759Z,27.90
2018-10-09T04:16:56.574Z,24.23
2018-10-09T04:19:25.449Z,26.73
2018-10-09T04:21:54.355Z,32.13
2018-10-09T04:24:24.142Z,31.93
2018-10-09T04:26:53.057Z,32.23
2018-10-09T04:29:21.972Z,25.67
2018-10-09T04:31:50.766Z,37.17
2018-10-09T04:34:19.611Z,28.83
2018-10-09T04:36:48.609Z,33.80
2018-10-09T04:39:17.449Z,31.17
2018-10-09T04:41:46.422Z,29.80
2018-10-09T04:44:15.277Z,31.77
2018-10-09T04:46:44.075Z,29.33
2018-10-09T04:49:13.571Z,33.47
2018-10-09T04:51:42.572Z,33.97
2018-10-09T04:54:11.388Z,31.53
2018-10-09T04:56:40.206Z,31.17
2018-10-09T04:59:09.269Z,32.67
2018-10-09T05:01:38.157Z,29.10
2018-10-09T05:04:06.989Z,36.17
2018-10-09T05:06:36.070Z,32.83
2018-10-09T05:09:08.145Z,40.57
2018-10-09T05:11:36.982Z,36.93
2018-10-09T05:14:05.830Z,31.83
2018-10-09T05:16:34.756Z,29.27
2018-10-09T05:19:04.182Z,31.70
2018-10-09T05:21:33.244Z,33.27
2018-10-09T05:24:02.162Z,31.77
2018-10-09T05:26:30.985Z,31.50
2018-10-09T05:29:00.091Z,36.83
2018-10-09T05:31:28.969Z,37.27
2018-10-09T05:33:58.329Z,34.40
2018-10-09T05:36:27.139Z,34.53
2018-10-09T05:38:55.968Z,32.83
2018-10-09T05:41:24.783Z,30.83
2018-10-09T05:43:53.875Z,36.37
2018-10-09T05:46:22.682Z,30.50
2018-10-09T05:48:51.621Z,32.80
2018-10-09T05:51:20.894Z,34.73
2018-10-09T05:53:49.758Z,31.63
2018-10-09T05:56:18.566Z,32.73
2018-10-09T05:58:47.584Z,32.93
2018-10-09T06:01:16.406Z,33.47
2018-10-09T06:03:45.479Z,40.23
2018-10-09T06:06:14.320Z,37.13
2018-10-09T06:08:46.701Z,31.00
2018-10-09T06:11:15.698Z,32.53
2018-10-09T06:13:44.506Z,31.40
2018-10-09T06:16:13.389Z,32.90
2018-10-09T06:18:42.430Z,37.43
2018-10-09T06:21:11.351Z,32.17
2018-10-09T06:23:40.174Z,33.73
2018-10-09T06:26:09.002Z,35.63
2018-10-09T06:28:37.853Z,35.47
2018-10-09T06:31:06.975Z,34.07
2018-10-09T06:33:35.819Z,32.10
2018-10-09T06:36:04.614Z,33.47
2018-10-09T06:38:33.447Z,32.73
2018-10-09T06:41:02.277Z,35.67
2018-10-09T06:43:31.110Z,28.70
2018-10-09T06:45:59.950Z,29.53
2018-10-09T06:48:28.765Z,30.13
2018-10-09T06:50:58.035Z,29.87
2018-10-09T06:53:26.943Z,31.77
2018-10-09T06:55:55.757Z,32.93
2018-10-09T06:58:24.573Z,32.53
2018-10-09T07:00:53.374Z,31.43
2018-10-09T07:03:22.374Z,29.53
2018-10-09T07:05:51.213Z,29.00
2018-10-09T07:08:20.043Z,27.13
2018-10-09T07:10:48.871Z,28.03
2018-10-09T07:13:17.699Z,30.57
2018-10-09T07:15:46.955Z,28.27
2018-10-09T07:18:15.928Z,29.50
2018-10-09T07:20:44.747Z,28.57
2018-10-09T07:23:13.690Z,27.17
2018-10-09T07:25:42.586Z,33.23
2018-10-09T07:28:11.435Z,30.37
2018-10-09T07:30:40.310Z,29.90
2018-10-09T07:33:09.173Z,30.90
2018-10-09T07:35:38.012Z,31.63
2018-10-09T07:38:06.850Z,30.77
2018-10-09T07:40:35.743Z,29.27
2018-10-09T07:43:04.603Z,27.63
2018-10-09T07:45:33.428Z,29.50
2018-10-09T07:48:02.299Z,26.47
2018-10-09T07:50:31.202Z,24.30
2018-10-09T07:53:03.476Z,25.67
2018-10-09T07:55:32.308Z,26.30
2018-10-09T07:58:02.228Z,28.87
2018-10-09T08:00:31.914Z,27.80
2018-10-09T08:03:00.738Z,26.70
2018-10-09T08:05:29.594Z,24.07
2018-10-09T08:07:58.452Z,24.80
2018-10-09T08:10:27.427Z,26.50
2018-10-09T08:12:56.545Z,22.50
2018-10-09T08:15:25.446Z,29.40
2018-10-09T08:17:54.306Z,22.87
2018-10-09T08:20:26.689Z,24.17
2018-10-09T08:22:55.810Z,23.23
2018-10-09T08:25:24.620Z,20.83
2018-10-09T08:27:53.633Z,20.63
2018-10-09T08:30:23.345Z,20.20
2018-10-09T08:32:52.485Z,25.20
2018-10-09T08:35:21.341Z,24.73
2018-10-09T08:37:50.371Z,21.53
2018-10-09T08:40:19.286Z,21.93
2018-10-09T08:42:48.197Z,27.47
2018-10-09T08:45:17.027Z,23.27
2018-10-09T08:47:45.848Z,25.33
2018-10-09T08:50:14.684Z,22.30
2018-10-09T08:52:43.531Z,19.13
2018-10-09T08:55:14.490Z,21.93
2018-10-09T08:57:43.528Z,19.73
2018-10-09T09:00:12.403Z,19.53
2018-10-09T09:02:41.255Z,24.57
2018-10-09T09:05:09.962Z,18.63
2018-10-09T09:07:39.126Z,23.47
2018-10-09T09:10:07.971Z,23.10
2018-10-09T09:12:36.794Z,20.30
2018-10-09T09:15:05.627Z,21.33
2018-10-09T09:17:34.483Z,19.13
2018-10-09T09:20:03.354Z,24.83
2018-10-09T09:22:32.368Z,20.47
2018-10-09T09:25:01.185Z,21.03
2018-10-09T09:27:30.300Z,21.30
2018-10-09T09:29:59.047Z,19.40
2018-10-09T09:32:27.910Z,19.27
2018-10-09T09:34:56.737Z,19.47
2018-10-09T09:37:25.916Z,18.70
2018-10-09T09:39:54.750Z,18.93
2018-10-09T09:42:23.808Z,22.97
2018-10-09T09:44:52.626Z,15.17
2018-10-09T09:47:21.537Z,20.23
2018-10-09T09:49:50.355Z,18.30
2018-10-09T09:52:19.241Z,22.20
2018-10-09T09:54:48.114Z,21.37
2018-10-09T09:57:16.987Z,23.83
2018-10-09T09:59:46.112Z,18.57
2018-10-09T10:02:14.978Z,18.30
2018-10-09T10:04:43.827Z,17.73
2018-10-09T10:07:12.654Z,18.43
2018-10-09T10:09:41.573Z,18.93
2018-10-09T10:12:10.550Z,17.00
2018-10-09T10:14:39.382Z,15.83
2018-10-09T10:17:08.230Z,22.60
2018-10-09T10:19:37.111Z,16.17
2018-10-09T10:22:06.075Z,19.80
2018-10-09T10:24:34.994Z,20.23
2018-10-09T10:27:03.830Z,19.27
2018-10-09T10:29:32.776Z,16.53
2018-10-09T10:32:01.582Z,16.33
2018-10-09T10:34:30.595Z,18.93
2018-10-09T10:36:59.431Z,16.30
2018-10-09T10:39:28.275Z,16.70
2018-10-09T10:41:57.224Z,17.83
2018-10-09T10:44:29.425Z,16.67
2018-10-09T10:46:58.463Z,14.40
2018-10-09T10:49:27.337Z,19.97
2018-10-09T10:51:56.097Z,16.17
2018-10-09T10:54:24.907Z,19.20
2018-10-09T10:56:53.831Z,18.33
2018-10-09T10:59:22.647Z,19.40
2018-10-09T11:01:51.609Z,21.20
2018-10-09T11:04:20.383Z,21.33
2018-10-09T11:06:49.188Z,17.73
2018-10-09T11:09:18.199Z,20.80
2018-10-09T11:11:47.021Z,16.70
2018-10-09T11:14:15.885Z,18.83
2018-10-09T11:16:46.897Z,18.23
2018-10-09T11:19:15.731Z,18.30
2018-10-09T11:21:44.626Z,21.43
2018-10-09T11:24:13.473Z,15.93
2018-10-09T11:26:45.015Z,17.07
2018-10-09T11:29:16.438Z,12.07
2018-10-09T11:31:45.414Z,14.07
2018-10-09T11:34:14.276Z,14.00
2018-10-09T11:36:43.094Z,13.73
2018-10-09T11:39:12.538Z,14.80
2018-10-09T11:41:41.419Z,13.20
2018-10-09T11:44:10.220Z,12.60
2018-10-09T11:46:39.697Z,12.90
2018-10-09T11:49:08.632Z,14.87
2018-10-09T11:51:37.597Z,14.20
2018-10-09T11:54:06.642Z,13.80
2018-10-09T11:56:35.482Z,14.10
2018-10-09T11:59:04.359Z,16.67
2018-10-09T12:01:33.163Z,17.17
2018-10-09T12:04:01.975Z,16.43
2018-10-09T12:06:30.798Z,17.10
2018-10-09T12:08:59.604Z,15.23
2018-10-09T12:11:28.463Z,17.03
2018-10-09T12:13:57.300Z,14.37
2018-10-09T12:16:26.111Z,17.03
2018-10-09T12:18:55.042Z,16.87
2018-10-09T12:21:24.596Z,13.73
2018-10-09T12:23:53.500Z,14.60
2018-10-09T12:26:22.509Z,20.77
2018-10-09T12:28:51.323Z,16.57
2018-10-09T12:31:20.179Z,14.93
2018-10-09T12:33:49.095Z,19.17
2018-10-09T12:36:17.920Z,15.50
2018-10-09T12:38:46.719Z,16.20
2018-10-09T12:41:15.583Z,17.73
2018-10-09T12:43:44.538Z,17.93
2018-10-09T12:46:13.346Z,16.10
2018-10-09T12:48:42.185Z,17.50
2018-10-09T12:51:12.227Z,16.60
2018-10-09T12:53:41.182Z,18.57
2018-10-09T12:56:10.012Z,14.87
2018-10-09T12:58:39.019Z,15.97
2018-10-09T13:01:07.856Z,17.63
2018-10-09T13:03:36.808Z,18.53
2018-10-09T13:06:05.606Z,17.07
2018-10-09T13:08:34.745Z,19.67
2018-10-09T13:11:03.564Z,15.83
2018-10-09T13:13:32.386Z,22.03
2018-10-09T13:16:01.274Z,18.07
2018-10-09T13:18:30.339Z,18.40
2018-10-09T13:20:59.256Z,18.13
2018-10-09T13:23:28.026Z,16.23
2018-10-09T13:25:56.839Z,16.57
2018-10-09T13:28:25.687Z,20.73
2018-10-09T13:30:54.596Z,16.03
2018-10-09T13:33:23.395Z,17.43
2018-10-09T13:35:52.439Z,15.23
2018-10-09T13:38:21.366Z,20.73
2018-10-09T13:40:50.131Z,16.70
2018-10-09T13:43:18.987Z,21.57
2018-10-09T13:45:47.851Z,19.50
2018-10-09T13:48:16.687Z,19.30
2018-10-09T13:50:45.514Z,25.13
2018-10-09T13:53:14.338Z,18.43
2018-10-09T13:55:43.183Z,16.67
2018-10-09T13:58:12.003Z,23.30
2018-10-09T14:00:40.847Z,19.30
2018-10-09T14:03:09.769Z,19.40
2018-10-09T14:05:38.512Z,16.27
2018-10-09T14:08:07.331Z,20.10
2018-10-09T14:10:36.162Z,20.33
2018-10-09T14:13:04.983Z,22.93
2018-10-09T14:15:33.802Z,23.87
2018-10-09T14:18:06.129Z,24.20
2018-10-09T14:20:35.168Z,19.27
2018-10-09T14:23:04.055Z,21.07
2018-10-09T14:25:32.867Z,20.67
2018-10-09T14:28:01.679Z,19.90
2018-10-09T14:30:30.588Z,24.53
2018-10-09T14:32:59.481Z,24.90
2018-10-09T14:35:28.331Z,24.73
2018-10-09T14:37:57.166Z,21.37
2018-10-09T14:40:25.988Z,20.63
2018-10-09T14:42:54.811Z,18.90
2018-10-09T14:45:23.694Z,22.87
2018-10-09T14:47:52.515Z,24.80
2018-10-09T14:50:21.384Z,22.23
2018-10-09T14:52:50.249Z,26.17
2018-10-09T14:55:19.102Z,25.93
2018-10-09T14:57:48.078Z,23.57
2018-10-09T15:00:16.899Z,24.30
2018-10-09T15:02:45.805Z,29.77
2018-10-09T15:05:14.645Z,26.17
2018-10-09T15:07:43.497Z,26.67
2018-10-09T15:10:12.294Z,22.50
2018-10-09T15:12:41.194Z,22.70
2018-10-09T15:15:10.049Z,25.40
2018-10-09T15:17:39.038Z,23.87
2018-10-09T15:20:10.756Z,22.87
2018-10-09T15:22:39.723Z,25.30
2018-10-09T15:25:08.660Z,23.63
2018-10-09T15:27:37.511Z,22.07
2018-10-09T15:30:06.323Z,22.63
2018-10-09T15:32:35.204Z,22.40
2018-10-09T15:35:04.067Z,25.33
2018-10-09T15:37:32.893Z,23.67
2018-10-09T15:40:01.827Z,21.97
2018-10-09T15:42:30.778Z,25.20
2018-10-09T15:44:59.645Z,26.43
2018-10-09T15:47:28.479Z,22.40
2018-10-09T15:49:57.545Z,25.10
2018-10-09T15:52:26.406Z,24.60
2018-10-09T15:54:55.220Z,21.70
2018-10-09T15:57:24.059Z,25.07
2018-10-09T15:59:53.613Z,24.50
2018-10-09T16:02:22.583Z,24.73
2018-10-09T16:04:51.447Z,24.23
2018-10-09T16:07:20.285Z,29.10
2018-10-09T16:09:49.175Z,27.50
2018-10-09T16:12:18.188Z,28.60
2018-10-09T16:14:47.210Z,23.60
2018-10-09T16:17:16.171Z,29.93
2018-10-09T16:19:45.007Z,26.00
2018-10-09T16:22:13.844Z,27.57
2018-10-09T16:24:42.938Z,26.93
2018-10-09T16:27:11.746Z,24.23
2018-10-09T16:29:40.562Z,28.10
2018-10-09T16:32:09.401Z,26.00
2018-10-09T16:34:38.243Z,26.43
2018-10-09T16:37:07.536Z,25.87
2018-10-09T16:39:36.331Z,25.50
2018-10-09T16:42:05.190Z,24.80
2018-10-09T16:44:34.003Z,24.03
2018-10-09T16:47:05.754Z,23.37
2018-10-09T16:49:36.314Z,26.63
2018-10-09T16:52:05.154Z,25.73
2018-10-09T16:54:34.015Z,26.50
2018-10-09T16:57:02.859Z,23.47
2018-10-09T16:59:31.699Z,28.83
2018-10-09T17:02:00.530Z,26.77
2018-10-09T17:04:29.511Z,22.47
2018-10-09T17:06:58.354Z,23.80
2018-10-09T17:09:27.166Z,29.37
2018-10-09T17:11:55.981Z,39.00
2018-10-09T17:14:25.006Z,31.80
2018-10-09T17:16:53.824Z,31.97
2018-10-09T17:19:22.646Z,26.47
2018-10-09T17:21:51.442Z,28.33
2018-10-09T17:24:20.362Z,28.57
2018-10-09T17:26:49.288Z,25.43
2018-10-09T17:29:18.031Z,27.07
2018-10-09T17:31:47.069Z,31.93
2018-10-09T17:34:16.705Z,34.10
2018-10-09T17:36:45.495Z,33.70
2018-10-09T17:39:14.447Z,31.63
2018-10-09T17:41:43.213Z,33.40
2018-10-09T17:44:12.034Z,29.40
2018-10-09T17:46:40.955Z,26.03
2018-10-09T17:49:09.707Z,33.87
2018-10-09T17:51:38.532Z,24.57
2018-10-09T17:54:07.371Z,24.53
2018-10-09T17:56:36.178Z,29.77
2018-10-09T17:59:04.988Z,28.17
2018-10-09T18:01:33.829Z,26.83
2018-10-09T18:04:02.698Z,28.00
2018-10-09T18:06:32.366Z,27.43
2018-10-09T18:09:01.389Z,29.20
2018-10-09T18:11:30.214Z,40.47
2018-10-09T18:13:59.079Z,30.90
2018-10-09T18:16:27.914Z,28.67
2018-10-09T18:18:56.911Z,27.43
2018-10-09T18:21:25.771Z,25.47
2018-10-09T18:23:54.670Z,25.90
2018-10-09T18:26:23.596Z,25.80
2018-10-09T18:28:52.418Z,24.57
2018-10-09T18:31:21.423Z,22.57
2018-10-09T18:33:50.331Z,25.40
2018-10-09T18:36:19.180Z,27.70
2018-10-09T18:38:48.546Z,25.53
2018-10-09T18:41:17.565Z,24.63
2018-10-09T18:43:46.368Z,28.07
2018-10-09T18:46:15.254Z,22.97
2018-10-09T18:48:45.254Z,24.97
2018-10-09T18:51:14.131Z,27.27
2018-10-09T18:53:43.526Z,26.67
2018-10-09T18:56:12.594Z,26.20
2018-10-09T18:58:41.468Z,24.27
2018-10-09T19:01:10.534Z,20.43
2018-10-09T19:03:39.488Z,20.10
2018-10-09T19:06:08.295Z,21.67
2018-10-09T19:08:37.131Z,19.50
2018-10-09T19:11:06.283Z,18.10
2018-10-09T19:13:35.107Z,21.30
2018-10-09T19:16:03.963Z,21.90
2018-10-09T19:18:32.773Z,18.53
2018-10-09T19:21:01.619Z,24.33
2018-10-09T19:23:30.431Z,23.97
2018-10-09T19:25:59.218Z,21.67
2018-10-09T19:28:28.074Z,20.23
2018-10-09T19:30:57.084Z,19.83
2018-10-09T19:33:27.022Z,19.83
2018-10-09T19:35:56.668Z,27.53
2018-10-09T19:38:25.536Z,20.07
2018-10-09T19:40:54.569Z,21.53
2018-10-09T19:43:23.534Z,20.80
2018-10-09T19:45:52.402Z,25.80
2018-10-09T19:48:21.239Z,20.70
2018-10-09T19:50:50.297Z,21.37
2018-10-09T19:53:19.079Z,22.20
2018-10-09T19:55:47.973Z,27.03
2018-10-09T19:58:16.916Z,23.40
2018-10-09T20:00:45.810Z,20.20
2018-10-09T20:03:14.590Z,22.83
2018-10-09T20:05:43.399Z,21.60
2018-10-09T20:08:12.318Z,27.77
2018-10-09T20:10:41.163Z,23.00
2018-10-09T20:13:10.015Z,32.10
2018-10-09T20:15:38.902Z,24.90
2018-10-09T20:18:07.843Z,26.60
2018-10-09T20:20:36.930Z,27.47
2018-10-09T20:23:05.852Z,26.40
2018-10-09T20:25:34.730Z,25.07
2018-10-09T20:28:03.592Z,22.43
2018-10-09T20:30:32.459Z,22.47
2018-10-09T20:33:02.156Z,22.37
2018-10-09T20:35:31.102Z,23.10
2018-10-09T20:38:00.097Z,24.17
2018-10-09T20:40:29.084Z,23.87
2018-10-09T20:42:58.066Z,24.13
2018-10-09T20:45:26.926Z,21.60
2018-10-09T20:47:55.837Z,19.57
2018-10-09T20:50:25.276Z,23.33
2018-10-09T20:52:54.144Z,22.53
2018-10-09T20:55:23.023Z,24.90
2018-10-09T20:57:51.898Z,26.07
2018-10-09T21:00:20.741Z,21.67
2018-10-09T21:02:49.587Z,24.50
2018-10-09T21:05:18.441Z,23.03
2018-10-09T21:07:47.232Z,25.07
2018-10-09T21:10:16.068Z,23.37
2018-10-09T21:12:44.896Z,24.77
2018-10-09T21:15:13.754Z,24.77
2018-10-09T21:17:42.645Z,26.63
2018-10-09T21:20:11.425Z,26.90
2018-10-09T21:22:40.351Z,20.37
2018-10-09T21:25:09.322Z,22.87
2018-10-09T21:27:38.139Z,26.13
2018-10-09T21:30:07.182Z,25.17
2018-10-09T21:32:36.145Z,24.07
2018-10-09T21:35:05.080Z,30.37
2018-10-09T21:37:34.487Z,21.73
2018-10-09T21:40:03.439Z,23.20
2018-10-09T21:42:32.380Z,26.67
2018-10-09T21:45:01.253Z,22.93
2018-10-09T21:47:30.103Z,28.87
2018-10-09T21:49:59.054Z,25.20
2018-10-09T21:52:28.006Z,22.60
2018-10-09T21:54:56.946Z,25.50
2018-10-09T21:57:25.743Z,24.17
2018-10-09T21:59:54.568Z,23.20
2018-10-09T22:02:23.423Z,26.20
2018-10-09T22:04:52.266Z,22.93
2018-10-09T22:07:21.136Z,27.27
2018-10-09T22:09:49.995Z,26.07
2018-10-09T22:12:18.866Z,28.23
2018-10-09T22:14:47.682Z,26.03
2018-10-09T22:17:17.313Z,25.90
2018-10-09T22:19:46.279Z,30.17
2018-10-09T22:22:15.100Z,24.43
2018-10-09T22:24:43.978Z,26.37
2018-10-09T22:27:13.134Z,31.17
2018-10-09T22:29:41.971Z,29.80
2018-10-09T22:32:10.916Z,27.80
2018-10-09T22:34:39.794Z,31.87
2018-10-09T22:37:08.650Z,31.13
2018-10-09T22:39:37.625Z,26.50
2018-10-09T22:42:06.587Z,29.33
2018-10-09T22:44:36.300Z,31.97
2018-10-09T22:47:05.217Z,26.50
2018-10-09T22:49:34.166Z,26.23
2018-10-09T22:52:02.994Z,31.43
2018-10-09T22:54:32.126Z,30.27
2018-10-09T22:57:01.002Z,32.10
2018-10-09T22:59:30.193Z,31.97
2018-10-09T23:01:59.234Z,28.07
2018-10-09T23:04:28.095Z,28.43
2018-10-09T23:06:56.895Z,29.03
2018-10-09T23:09:25.763Z,26.20
2018-10-09T23:11:54.695Z,30.33
2018-10-09T23:14:23.682Z,33.43
2018-10-09T23:16:52.484Z,29.67
2018-10-09T23:19:21.278Z,30.87
2018-10-09T23:21:50.152Z,31.93
2018-10-09T23:24:19.007Z,32.50
2018-10-09T23:26:47.997Z,31.00
2018-10-09T23:29:16.828Z,27.93
2018-10-09T23:31:45.852Z,32.23
2018-10-09T23:34:14.694Z,29.80
2018-10-09T23:36:43.600Z,32.73
2018-10-09T23:39:12.463Z,32.07
2018-10-09T23:41:41.348Z,31.13
2018-10-09T23:44:10.141Z,31.93
2018-10-09T23:46:39.078Z,34.47
2018-10-09T23:49:08.010Z,34.87
2018-10-09T23:51:36.953Z,37.27
2018-10-09T23:54:05.882Z,33.77
2018-10-09T23:56:35.083Z,37.53
2018-10-09T23:59:03.911Z,36.20
